Flight Track Log - Related Links

Times and Time Zones

All times are in EDT time to prevent confusion due to time zone crossing. See the LXJ541 flight status page for this flight to view local times or setup timezone preferences in your user account.

Time Position Orientation Groundspeed Altitude Reporting Facility
EDT Latitude Longitude Course Direction KTS MPH feet Rate Location/Type
Tue 04:09:34 PM 38.0678 -85.7967 243° Southwest 263 303 8,700  Level Indianapolis Center
Tue 04:10:36 PM 38.0736 -85.8967 274° West 279 321 11,300 2,661 Climbing Indianapolis Center
Tue 04:11:38 PM 38.0667 -86.0069 265° West 314 361 14,200 2,758 Climbing Indianapolis Center
Tue 04:12:40 PM 38.0614 -86.1278 267° West 338 389 17,000 2,710 Climbing Indianapolis Center
Tue 04:13:00 PM 37.9994 -86.8568 264° West  Level FlightAware Approximate
Tue 04:13:42 PM 38.0528 -86.2531 265° West 353 406 19,800  Level Indianapolis Center
Tue 04:14:44 PM 38.0431 -86.3822 265° West 364 419 22,500 2,226 Climbing Indianapolis Center
Tue 04:15:46 PM 38.0317 -86.5178 264° West 379 436 24,400 2,177 Climbing Indianapolis Center
Tue 04:16:48 PM 38.0183 -86.6867 264° West 397 457 27,000 2,177 Climbing Indianapolis Center
Tue 04:17:50 PM 38.0067 -86.8342 264° West 410 472 28,900 2,016 Climbing Indianapolis Center
Tue 04:18:53 PM 37.9939 -86.9850 264° West 422 486 31,200 2,064 Climbing Indianapolis Center
Tue 04:19:55 PM 37.9811 -87.1361 264° West 425 489 33,200 2,032 Climbing Indianapolis Center
Tue 04:20:57 PM 37.9681 -87.2869 264° West 425 489 35,400 1,839 Climbing Indianapolis Center
Tue 04:21:59 PM 37.9556 -87.4347 264° West 420 483 37,000 774 Climbing Indianapolis Center
Tue 04:23:01 PM 37.9425 -87.5889 264° West 433 498 37,000  Level Indianapolis Center
Tue 04:24:03 PM 37.9294 -87.7442 264° West 441 507 37,000  Level Indianapolis Center
Tue 04:25:05 PM 37.9156 -87.9017 264° West 446 513 37,000 484 Level Indianapolis Center
Tue 04:26:07 PM 37.8969 -88.0853 263° West 435 501 38,000 1,086 Climbing Indianapolis Center
Tue 04:26:50 PM 37.8903 -88.1761 265° West 432 497 38,900 1,065 Climbing Kansas City Center
Tue 04:27:54 PM 37.8747 -88.3244 262° West 426 490 39,900 1,037 Climbing Kansas City Center
Tue 04:28:11 PM 37.8700 -88.3847 264° West 430 495 40,300 1,000 Climbing Indianapolis Center
Tue 04:28:54 PM 37.8653 -88.4769 266° West 430 495 40,900 1,009 Climbing Kansas City Center
Tue 04:29:58 PM 37.8508 -88.6572 264° West 429 494 42,100 1,016 Climbing Kansas City Center
Tue 04:30:58 PM 37.8425 -88.7819 265° West 426 490 43,000 435 Climbing Kansas City Center
Tue 04:32:02 PM 37.8283 -88.9619 264° West 429 494 43,000  Level Kansas City Center
Tue 04:33:03 PM 37.8161 -89.1222 265° West 435 501 43,000  Level Kansas City Center
Tue 04:34:04 PM 37.8036 -89.2764 264° West 440 506 43,000  Level Kansas City Center
Tue 04:35:05 PM 37.7914 -89.4253 264° West 444 511 43,000  Level Kansas City Center
Tue 04:36:10 PM 37.7781 -89.5825 264° West 447 514 43,000  Level Kansas City Center
Tue 04:37:11 PM 37.7653 -89.7383 264° West 447 514 43,000  Level Kansas City Center
Tue 04:38:13 PM 37.7519 -89.8947 264° West 448 516 43,000  Level Kansas City Center
Tue 04:39:14 PM 37.7356 -90.0831 264° West 448 516 43,000  Level Kansas City Center
Tue 04:40:18 PM 37.7214 -90.2381 263° West 447 514 43,000  Level Kansas City Center
Tue 04:41:18 PM 37.7072 -90.3944 264° West 447 514 43,000  Level Kansas City Center
Tue 04:42:21 PM 37.6939 -90.5481 264° West 445 512 43,000  Level Kansas City Center
Tue 04:43:22 PM 37.6789 -90.7067 263° West 451 519 43,000  Level Kansas City Center
Tue 04:44:26 PM 37.6639 -90.8642 263° West 453 521 43,000  Level Kansas City Center
Tue 04:45:27 PM 37.6456 -91.0528 263° West 451 519 43,000  Level Kansas City Center
Tue 04:46:31 PM 37.6311 -91.2072 263° West 452 520 43,000  Level Kansas City Center
Tue 04:47:32 PM 37.6167 -91.3642 263° West 450 518 43,000  Level Kansas City Center
Tue 04:48:33 PM 37.6011 -91.5200 263° West 448 516 43,000  Level Kansas City Center
Tue 04:49:36 PM 37.5856 -91.6761 263° West 446 513 43,000  Level Kansas City Center
Tue 04:50:37 PM 37.5708 -91.8317 263° West 445 512 43,000  Level Kansas City Center
Tue 04:51:38 PM 37.5517 -92.0200 263° West 446 513 43,000  Level Kansas City Center
Tue 04:52:42 PM 37.5347 -92.1769 262° West 448 516 43,000  Level Kansas City Center
Tue 04:53:42 PM 37.5178 -92.3364 262° West 451 519 43,000  Level Kansas City Center
Tue 04:54:48 PM 37.5011 -92.4953 263° West 454 522 43,000  Level Kansas City Center
Tue 04:55:48 PM 37.4850 -92.6531 263° West 453 521 43,000  Level Kansas City Center
Tue 04:56:48 PM 37.4672 -92.8103 262° West 452 520 43,000  Level Kansas City Center
Tue 04:57:53 PM 37.4497 -92.9672 262° West 451 519 43,000  Level Kansas City Center
Tue 04:58:54 PM 37.4333 -93.1233 263° West 450 518 43,000  Level Kansas City Center
Tue 04:59:57 PM 37.4114 -93.3114 262° West 451 519 43,000  Level Kansas City Center
Tue 05:00:59 PM 37.3944 -93.4692 262° West 453 521 43,000  Level Kansas City Center
Tue 05:01:59 PM 37.3764 -93.6264 262° West 454 522 43,000  Level Kansas City Center
Tue 05:03:03 PM 37.3586 -93.7828 262° West 452 520 43,000  Level Kansas City Center
Tue 05:04:03 PM 37.3392 -93.9392 261° West 452 520 43,000  Level Kansas City Center
Tue 05:05:06 PM 37.3197 -94.1103 262° West 453 521 43,000  Level Kansas City Center
Tue 05:06:08 PM 37.3019 -94.2661 262° West 453 521 43,000  Level Kansas City Center
Tue 05:07:11 PM 37.2817 -94.4231 261° West 454 522 43,000  Level Kansas City Center
Tue 05:08:11 PM 37.2617 -94.5797 261° West 455 524 43,000  Level Kansas City Center
Tue 05:09:15 PM 37.2389 -94.7669 261° West 453 521 43,000  Level Kansas City Center
Tue 05:10:15 PM 37.2164 -94.9175 259° West 445 512 43,000  Level Kansas City Center
Tue 05:11:19 PM 37.1969 -95.0725 261° West 448 516 43,000  Level Kansas City Center
Tue 05:12:20 PM 37.1772 -95.2264 261° West 450 518 43,000  Level Kansas City Center
Tue 05:13:24 PM 37.1572 -95.3803 261° West 449 517 43,000  Level Kansas City Center
Tue 05:14:24 PM 37.1381 -95.5372 261° West 453 521 43,000  Level Kansas City Center
Tue 05:15:28 PM 37.1133 -95.7189 260° West 446 513 43,000  Level Kansas City Center
Tue 05:16:28 PM 37.0922 -95.8731 260° West 448 516 43,000  Level Kansas City Center
Tue 05:17:32 PM 37.0706 -96.0283 260° West 452 520 43,000  Level Kansas City Center
Tue 05:18:33 PM 37.0486 -96.1836 260° West 453 521 43,000  Level Kansas City Center
Tue 05:19:34 PM 37.0267 -96.3386 260° West 453 521 43,000  Level Kansas City Center
Tue 05:20:38 PM 37.0044 -96.4931 260° West 453 521 43,000  Level Kansas City Center
Tue 05:21:38 PM 36.9775 -96.6775 260° West 450 518 43,000  Level Kansas City Center
Tue 05:22:43 PM 36.9581 -96.8103 260° West 450 518 43,000  Level Kansas City Center
Tue 05:23:43 PM 36.9344 -96.9639 259° West 449 517 43,000  Level Kansas City Center
Tue 05:24:44 PM 36.9083 -97.1472 260° West 448 516 43,000  Level Kansas City Center
Tue 05:25:48 PM 36.8858 -97.2981 259° West 443 510 43,000  Level Kansas City Center
Tue 05:26:50 PM 36.8628 -97.4506 259° West 444 511 43,000  Level Kansas City Center
Tue 05:27:50 PM 36.8378 -97.6083 259° West 451 519 43,000  Level Kansas City Center
Tue 05:28:54 PM 36.8125 -97.7750 259° West 453 521 43,000  Level Kansas City Center
Tue 05:29:54 PM 36.7886 -97.9275 259° West 449 517 43,000  Level Kansas City Center
Tue 05:30:58 PM 36.7639 -98.0786 259° West 447 514 43,000  Level Kansas City Center
Tue 05:31:59 PM 36.7403 -98.2331 259° West 450 518 43,000  Level Kansas City Center
Tue 05:33:02 PM 36.7158 -98.3869 259° West 452 520 43,000  Level Kansas City Center
Tue 05:34:04 PM 36.6856 -98.5731 259° West 456 525 43,000  Level Kansas City Center
Tue 05:35:05 PM 36.6611 -98.7292 259° West 459 528 43,000  Level Kansas City Center
Tue 05:36:08 PM 36.6361 -98.8819 259° West 456 525 43,000  Level Kansas City Center
Tue 05:37:09 PM 36.6117 -99.0342 259° West 452 520 43,000  Level Kansas City Center
Tue 05:38:10 PM 36.5864 -99.1828 258° West 445 512 43,000  Level Kansas City Center
Tue 05:39:14 PM 36.5567 -99.3636 258° West 447 514 43,000  Level Kansas City Center
Tue 05:40:15 PM 36.5311 -99.5136 258° West 447 514 43,000  Level Kansas City Center
Tue 05:41:18 PM 36.5050 -99.6642 258° West 447 514 43,000  Level Kansas City Center
Tue 05:42:19 PM 36.4794 -99.8122 258° West 443 510 43,000  Level Kansas City Center
Tue 05:43:22 PM 36.4539 -99.9600 258° West 440 506 43,000  Level Kansas City Center
Tue 05:44:23 PM 36.4272 -100.1094 258° West 442 509 43,000  Level Kansas City Center
Tue 05:45:27 PM 36.3978 -100.2844 258° West 436 502 43,000  Level Kansas City Center
Tue 05:46:27 PM 36.3706 -100.4317 257° West 436 502 43,000  Level Kansas City Center
Tue 05:47:31 PM 36.3450 -100.5772 258° West 434 499 43,000  Level Kansas City Center
Tue 05:48:32 PM 36.3197 -100.7147 257° West 433 498 43,000  Level Kansas City Center
Tue 05:49:33 PM 36.2886 -100.8850 257° West 426 490 43,000  Level Kansas City Center
Tue 05:50:11 PM 36.2731 -100.9750 258° West 432 497 43,000  Level Albuquerque Center
Tue 05:51:12 PM 36.2453 -101.1294 257° West 433 498 43,000  Level Albuquerque Center
Tue 05:52:14 PM 36.2194 -101.2642 257° West 433 498 43,000  Level Albuquerque Center
Tue 05:53:16 PM 36.1931 -101.4097 257° West 434 499 43,000  Level Albuquerque Center
Tue 05:54:17 PM 36.1661 -101.5564 257° West 438 504 43,000  Level Albuquerque Center
Tue 05:55:19 PM 36.1322 -101.7289 256° West 435 501 43,000  Level Albuquerque Center
Tue 05:56:21 PM 36.1050 -101.8736 257° West 434 499 43,000  Level Albuquerque Center
Tue 05:57:23 PM 36.0767 -102.0186 256° West 436 502 43,000  Level Albuquerque Center
Tue 05:58:24 PM 36.0492 -102.1628 257° West 435 501 43,000  Level Albuquerque Center
Tue 05:59:26 PM 36.0219 -102.3072 257° West 435 501 43,000  Level Albuquerque Center
Tue 06:00:28 PM 35.9917 -102.4514 255° West 436 502 43,000  Level Albuquerque Center
Tue 06:01:30 PM 35.9589 -102.6242 257° West 434 499 43,000  Level Albuquerque Center
Tue 06:02:31 PM 35.9306 -102.7686 256° West 435 501 43,000  Level Albuquerque Center
Tue 06:03:33 PM 35.9014 -102.9106 256° West 431 496 43,000  Level Albuquerque Center
Tue 06:04:35 PM 35.8728 -103.0547 256° West 432 497 43,000  Level Albuquerque Center
Tue 06:05:37 PM 35.8425 -103.1997 256° West 434 499 43,000  Level Albuquerque Center
Tue 06:06:38 PM 35.8128 -103.3464 256° West 437 503 43,000  Level Albuquerque Center
Tue 06:07:40 PM 35.7833 -103.4917 256° West 435 501 43,000  Level Albuquerque Center
Tue 06:08:42 PM 35.7481 -103.6614 256° West 437 503 43,000  Level Albuquerque Center
Tue 06:09:44 PM 35.7186 -103.8031 256° West 428 493 43,000  Level Albuquerque Center
Tue 06:10:45 PM 35.6897 -103.9439 256° West 424 488 43,000  Level Albuquerque Center
Tue 06:11:47 PM 35.6589 -104.0867 255° West 428 493 43,000  Level Albuquerque Center
Tue 06:12:49 PM 35.6294 -104.2286 256° West 429 494 43,000  Level Albuquerque Center
Tue 06:13:51 PM 35.5992 -104.3697 255° West 427 491 43,000  Level Albuquerque Center
Tue 06:14:52 PM 35.5669 -104.5111 254° West 429 494 43,000  Level Albuquerque Center
Tue 06:15:54 PM 35.5311 -104.6753 255° West 426 490 43,000  Level Albuquerque Center
Tue 06:16:56 PM 35.5003 -104.8153 255° West 424 488 43,000  Level Albuquerque Center
Tue 06:17:58 PM 35.4700 -104.9561 255° West 424 488 43,000  Level Albuquerque Center
Tue 06:19:00 PM 35.4381 -105.0961 254° West 424 488 43,000  Level Albuquerque Center
Tue 06:20:01 PM 35.4067 -105.2350 255° West 422 486 43,000  Level Albuquerque Center
Tue 06:21:03 PM 35.3758 -105.3733 255° West 420 483 43,000  Level Albuquerque Center
Tue 06:22:05 PM 35.3492 -105.5125 257° West 418 481 43,000  Level Albuquerque Center
Tue 06:23:07 PM 35.3306 -105.6786 262° West 419 482 43,000  Level Albuquerque Center
Tue 06:24:09 PM 35.3139 -105.8214 262° West 422 486 43,000  Level Albuquerque Center
Tue 06:25:11 PM 35.2978 -105.9639 262° West 420 483 43,000  Level Albuquerque Center
Tue 06:26:12 PM 35.2808 -106.1072 262° West 422 486 43,000  Level Albuquerque Center
Tue 06:27:14 PM 35.2650 -106.2411 262° West 418 481 43,000  Level Albuquerque Center
Tue 06:28:16 PM 35.2478 -106.3831 262° West 421 484 43,000  Level Albuquerque Center
Tue 06:29:18 PM 35.2281 -106.5406 261° West 424 488 43,000  Level Albuquerque Center
Tue 06:30:20 PM 35.2092 -106.6989 262° West 423 487 43,000  Level Albuquerque Center
Tue 06:31:22 PM 35.1914 -106.8347 261° West 422 486 43,000  Level Albuquerque Center
Tue 06:32:23 PM 35.1728 -106.9717 261° West 425 489 43,000  Level Albuquerque Center
Tue 06:33:25 PM 35.1533 -107.1294 261° West 421 484 43,000  Level Albuquerque Center
Tue 06:34:27 PM 35.1331 -107.2831 261° West 430 495 43,000  Level Albuquerque Center
Tue 06:35:29 PM 35.1139 -107.4211 260° West 420 483 43,000  Level Albuquerque Center
Tue 06:36:31 PM 35.0953 -107.5625 261° West 420 483 43,000  Level Albuquerque Center
Tue 06:37:32 PM 35.0767 -107.7014 261° West 418 481 43,000  Level Albuquerque Center
Tue 06:38:34 PM 35.0569 -107.8486 261° West 416 479 43,000  Level Albuquerque Center
Tue 06:39:36 PM 35.0386 -107.9828 261° West 417 480 43,000  Level Albuquerque Center
Tue 06:40:38 PM 35.0167 -108.1414 260° West 422 486 43,000  Level Albuquerque Center
Tue 06:41:40 PM 34.9989 -108.2747 261° West 417 480 43,000  Level Albuquerque Center
Tue 06:42:41 PM 34.9778 -108.4300 261° West 415 478 43,000  Level Albuquerque Center
Tue 06:43:43 PM 34.9592 -108.5631 260° West 415 478 43,000  Level Albuquerque Center
Tue 06:44:45 PM 34.9356 -108.7283 260° West 432 497 43,000  Level Albuquerque Center
Tue 06:45:47 PM 34.9161 -108.8683 260° West 437 503 43,000  Level Albuquerque Center
Tue 06:46:48 PM 34.8967 -109.0058 260° West 432 497 43,000  Level Albuquerque Center
Tue 06:47:50 PM 34.8728 -109.1642 260° West 426 490 43,000  Level Albuquerque Center
Tue 06:48:52 PM 34.8533 -109.3000 260° West 424 488 43,000  Level Albuquerque Center
Tue 06:49:53 PM 34.8294 -109.4575 260° West 423 487 43,000  Level Albuquerque Center
Tue 06:50:55 PM 34.8100 -109.5911 260° West 421 484 43,000  Level Albuquerque Center
Tue 06:51:57 PM 34.7883 -109.7275 259° West 424 488 43,000  Level Albuquerque Center
Tue 06:52:58 PM 34.7647 -109.8853 260° West 425 489 43,000  Level Albuquerque Center
Tue 06:54:00 PM 34.7439 -110.0233 260° West 429 494 43,000  Level Albuquerque Center
Tue 06:55:01 PM 34.7208 -110.1886 260° West 439 505 43,000  Level Albuquerque Center
Tue 06:56:03 PM 34.6986 -110.3250 259° West 435 501 43,000  Level Albuquerque Center
Tue 06:57:04 PM 34.6739 -110.4847 259° West 432 497 43,000  Level Albuquerque Center
Tue 06:58:06 PM 34.6514 -110.6225 259° West 433 498 43,000  Level Albuquerque Center
Tue 06:59:08 PM 34.6247 -110.7697 258° West 435 501 43,000  Level Albuquerque Center
Tue 07:00:09 PM 34.6000 -110.9150 258° West 439 505 43,000  Level Albuquerque Center
Tue 07:01:11 PM 34.5778 -111.0583 259° West 436 502 43,000  Level Albuquerque Center
Tue 07:02:12 PM 34.5539 -111.2003 258° West 433 498 43,000  Level Albuquerque Center
Tue 07:03:14 PM 34.5308 -111.3422 259° West 432 497 43,000  Level Albuquerque Center
Tue 07:04:15 PM 34.5078 -111.4806 259° West 426 490 43,000  Level Albuquerque Center
Tue 07:05:17 PM 34.4800 -111.6442 258° West 419 482 43,000  Level Albuquerque Center
Tue 07:06:19 PM 34.4578 -111.7789 259° West 413 475 43,000  Level Albuquerque Center
Tue 07:07:20 PM 34.4350 -111.9119 258° West 410 472 43,000  Level Albuquerque Center
Tue 07:08:22 PM 34.4114 -112.0464 258° West 411 473 43,000  Level Albuquerque Center
Tue 07:09:23 PM 34.3881 -112.1806 258° West 411 473 43,000  Level Albuquerque Center
Tue 07:10:25 PM 34.3644 -112.3150 258° West 411 473 43,000  Level Albuquerque Center
Tue 07:11:27 PM 34.3356 -112.4764 258° West 412 474 43,000  Level Albuquerque Center
Tue 07:12:28 PM 34.3128 -112.6108 258° West 411 473 43,000  Level Albuquerque Center
Tue 07:13:30 PM 34.2892 -112.7461 258° West 413 475 43,000  Level Albuquerque Center
Tue 07:14:31 PM 34.2647 -112.8789 257° West 408 470 43,000  Level Albuquerque Center
Tue 07:15:33 PM 34.2414 -113.0114 258° West 407 468 43,000 -290 Level Albuquerque Center
Tue 07:16:35 PM 34.2167 -113.1450 257° West 408 470 42,400 -1,268 Descending Albuquerque Center
Tue 07:17:36 PM 34.1928 -113.2781 258° West 407 468 40,400 -2,098 Descending Albuquerque Center
Tue 07:18:38 PM 34.1622 -113.4389 257° West 410 472 38,100 -2,098 Descending Albuquerque Center
Tue 07:19:39 PM 34.1386 -113.5717 258° West 409 471 36,100 -1,902 Descending Albuquerque Center
Tue 07:20:41 PM 34.1139 -113.7056 257° West 409 471 34,200 -1,016 Descending Albuquerque Center
Tue 07:21:43 PM 34.0872 -113.8431 257° West 416 479 34,000 -98 Descending Albuquerque Center
Tue 07:22:44 PM 34.0619 -113.9828 258° West 424 488 34,000  Level Albuquerque Center
Tue 07:23:58 PM 34.0311 -114.1456 257° West 420 483 34,000  Level Los Angeles Center
Tue 07:25:00 PM 34.0000 -114.3078 257° West 415 478 34,000  Level Los Angeles Center
Tue 07:26:02 PM 33.9750 -114.4436 258° West 416 479 34,000  Level Los Angeles Center
Tue 07:27:04 PM 33.9481 -114.5775 256° West 413 475 34,000 -720 Level Los Angeles Center
Tue 07:28:07 PM 33.9222 -114.7147 257° West 418 481 32,500 -1,306 Descending Los Angeles Center
Tue 07:29:08 PM 33.8992 -114.8250 256° West 425 489 31,300 -1,548 Descending Los Angeles Center
Tue 07:30:11 PM 33.8661 -114.9969 257° West 438 504 29,300 -2,112 Descending Los Angeles Center
Tue 07:31:13 PM 33.8317 -115.1686 256° West 440 506 26,900 -2,098 Descending Los Angeles Center
Tue 07:32:14 PM 33.8050 -115.3028 257° West 420 483 25,000 -1,512 Descending Los Angeles Center
Tue 07:33:16 PM 33.7847 -115.4067 257° West 406 467 23,800 -1,452 Descending Los Angeles Center
Tue 07:34:18 PM 33.7525 -115.5622 256° West 402 463 22,000 -1,597 Descending Los Angeles Center
Tue 07:35:20 PM 33.7261 -115.6886 256° West 395 455 20,500 -1,306 Descending Los Angeles Center
Tue 07:36:22 PM 33.7056 -115.7886 256° West 388 447 19,300 -1,694 Descending Los Angeles Center
Tue 07:37:24 PM 33.6700 -115.9628 256° West 386 444 17,000 -1,597 Descending Los Angeles Center
Tue 07:38:26 PM 33.6447 -116.0836 256° West 379 436 16,000 -484 Descending Los Angeles Center
Tue 07:39:28 PM 33.6106 -116.1967 250° West 369 425 16,000 -48 Level Los Angeles Center
Tue 07:40:30 PM 33.5572 -116.3011 239° Southwest 369 425 15,900 -97 Descending Los Angeles Center
Tue 07:41:32 PM 33.5072 -116.4039 240° Southwest 364 419 15,800 -1,065 Descending Los Angeles Center
Tue 07:42:34 PM 33.4456 -116.5233 238° Southwest 359 413 13,700 -1,839 Descending Los Angeles Center
Tue 07:43:36 PM 33.3972 -116.6175 238° Southwest 344 396 12,000 -1,645 Descending Los Angeles Center
Tue 07:44:38 PM 33.3489 -116.7136 239° Southwest 341 392 10,300 -1,452 Descending Los Angeles Center
Tue 07:45:40 PM 33.3058 -116.7994 239° Southwest 317 365 9,000 -1,306 Descending Los Angeles Center
Tue 07:46:42 PM 33.2664 -116.8756 238° Southwest 283 326 7,600 -1,161 Descending Los Angeles Center
Tue 07:47:44 PM 33.2281 -116.9503 238° Southwest 271 312 6,600 -1,353 Descending Los Angeles Center
Tue 07:48:24 PM 33.2000 -117.0167 243° Southwest 264 304 5,300 -1,740 Descending Southern California TRACON
Tue 07:49:24 PM 33.1667 -117.0833 239° Southwest 260 299 3,700 -1,289 Descending Southern California TRACON
Tue 07:50:25 PM 33.1500 -117.1667 257° West 199 229 2,700 -1,041 Descending Southern California TRACON
Tue 07:51:25 PM 33.1333 -117.2000 239° Southwest 143 165 1,600 -857 Descending Southern California TRACON
Tue 07:53:06 PM 33.1292 -117.2717 266° West 142 163 400 -713 Descending Los Angeles Center
Tue 07:55:00 PM 33.1167 -117.2667 253° West  Level FlightAware Approximate
Tue 08:02:00 PM 33.1283 -117.2801 253° West  Level Estimated

Login

Don't have an account? Register now (free) for customized features, flight alerts, and more!